Terminal Aerodrome Forecast
Issued by NWS Boston, MA

Home | Current Version | Previous Version | Text Only | Print | Product List | Glossary On
Versions: 1 2 3 4 5 6 7 8 9 10 11 12 13 14 15 16 17 18 19 20 21 22 23 24 25 26 27 28 29 30 31 32 33 34 35 36 37 38 39 40 41 42 43 44 45 46 47
000
FTUS41 KBOX 282320
TAFBOS
TAF
KBOS 282320Z 2900/3006 07007KT 3SM -RA BR SCT005 OVC015
     FM290100 04007KT 3SM -RA BR OVC005
     FM290400 02004KT 2SM -RA BR OVC003
     FM290900 35005KT P6SM OVC008
     FM291600 34009KT P6SM BKN035
     FM292100 33013G23KT P6SM SCT070=

USA.gov is the U.S. government's official web portal to all federal, state and local government web resources and services.